JAD weather

Perth Jandakot Airport
Perth, Western Australia, Australia

Public forecast

Using degrees Celsius for public forecast. Weather courtesy of forecast.io.

METAR (pilot weather report)

Retrieved 2018/07/18 09:00 UTC (1 hour ago):

YPJT 180900Z AUTO 30007KT 9999 -SHRA SCT040 SCT048 BKN058 16/14 Q1018

TAF (pilot weather forecast)

Forecast is more than 12 hours old.

Retrieved 2018/07/17 00:00 UTC (1 day ago):

TAF YPJT 172225Z 1800/1818 27008KT 9999 -SHRA BKN040 FM180800 22010KT 9999 -SHRA SCT040 FM181300 16005KT 9999 SCT030 INTER 1800/1809 5000 SHRA SCT015